createdAt,value
2018-07-11T00:01:48.502Z,61.70
2018-07-11T00:04:19.170Z,61.89
2018-07-11T00:06:49.653Z,62.29
2018-07-11T00:09:20.365Z,62.04
2018-07-11T00:11:51.078Z,62.31
2018-07-11T00:14:21.262Z,62.86
2018-07-11T00:16:56.969Z,62.35
2018-07-11T00:19:27.614Z,62.38
2018-07-11T00:21:58.539Z,62.82
2018-07-11T00:24:29.398Z,62.48
2018-07-11T00:27:00.389Z,62.63
2018-07-11T00:29:30.496Z,61.68
2018-07-11T00:32:01.665Z,62.09
2018-07-11T00:34:32.434Z,61.54
2018-07-11T00:37:03.291Z,62.21
2018-07-11T00:39:34.614Z,62.50
2018-07-11T00:42:05.722Z,63.08
2018-07-11T00:44:36.613Z,62.21
2018-07-11T00:47:07.353Z,62.65
2018-07-11T00:49:37.981Z,62.65
2018-07-11T00:52:08.937Z,63.30
2018-07-11T00:54:39.678Z,63.30
2018-07-11T00:57:10.220Z,63.35
2018-07-11T00:59:42.237Z,63.13
2018-07-11T01:02:12.998Z,63.18
2018-07-11T01:04:43.642Z,63.33
2018-07-11T01:07:14.036Z,62.88
2018-07-11T01:09:50.361Z,63.26
2018-07-11T01:12:21.409Z,63.86
2018-07-11T01:14:52.019Z,63.83
2018-07-11T01:17:27.520Z,63.74
2018-07-11T01:19:59.140Z,63.67
2018-07-11T01:22:30.084Z,64.07
2018-07-11T01:27:30.085Z,63.69
2018-07-11T01:30:00.706Z,63.22
2018-07-11T01:32:31.435Z,63.84
2018-07-11T01:35:01.632Z,63.94
2018-07-11T01:37:32.648Z,63.62
2018-07-11T01:40:03.143Z,63.48
2018-07-11T01:42:33.468Z,63.08
2018-07-11T01:45:03.753Z,63.10
2018-07-11T01:47:34.634Z,62.91
2018-07-11T01:50:05.262Z,63.02
2018-07-11T01:52:52.318Z,63.28
2018-07-11T01:55:23.085Z,62.94
2018-07-11T01:57:58.850Z,63.28
2018-07-11T02:00:30.685Z,63.30
2018-07-11T02:03:01.545Z,63.91
2018-07-11T02:05:32.357Z,63.72
2018-07-11T02:08:04.522Z,63.32
2018-07-11T02:10:35.281Z,63.51
2018-07-11T02:13:06.142Z,62.92
2018-07-11T02:15:37.003Z,63.14
2018-07-11T02:18:07.905Z,62.48
2018-07-11T02:20:38.661Z,62.15
2018-07-11T02:23:09.422Z,62.89
2018-07-11T02:25:40.173Z,62.76
2018-07-11T02:28:10.733Z,63.10
2018-07-11T02:30:41.590Z,62.34
2018-07-11T02:33:12.405Z,62.36
2018-07-11T02:35:43.062Z,62.56
2018-07-11T02:38:13.830Z,63.04
2018-07-11T02:40:44.658Z,63.00
2018-07-11T02:43:15.817Z,63.27
2018-07-11T02:45:46.596Z,63.99
2018-07-11T02:48:17.631Z,64.24
2018-07-11T02:50:48.332Z,63.87
2018-07-11T02:53:24.442Z,63.86
2018-07-11T02:55:55.189Z,64.00
2018-07-11T02:58:26.189Z,64.09
2018-07-11T03:00:56.417Z,64.23
2018-07-11T03:03:27.230Z,64.27
2018-07-11T03:05:57.990Z,64.49
2018-07-11T03:08:38.361Z,64.65
2018-07-11T03:11:09.075Z,65.29
2018-07-11T03:13:39.829Z,65.68
2018-07-11T03:16:10.490Z,65.10
2018-07-11T03:18:41.173Z,65.35
2018-07-11T03:21:11.853Z,65.17
2018-07-11T03:23:42.991Z,65.02
2018-07-11T03:26:13.763Z,65.98
2018-07-11T03:28:44.146Z,65.06
2018-07-11T03:31:14.932Z,64.77
2018-07-11T03:33:45.268Z,64.80
2018-07-11T03:36:15.364Z,64.26
2018-07-11T03:38:46.437Z,64.52
2018-07-11T03:41:17.045Z,63.88
2018-07-11T03:43:47.786Z,64.22
2018-07-11T03:46:18.585Z,64.74
2018-07-11T03:48:49.449Z,63.50
2018-07-11T03:51:20.201Z,63.99
2018-07-11T03:53:50.598Z,63.90
2018-07-11T03:56:21.422Z,63.79
2018-07-11T03:58:52.569Z,64.21
2018-07-11T04:01:23.338Z,64.54
2018-07-11T04:03:54.226Z,64.40
2018-07-11T04:06:24.728Z,64.94
2018-07-11T04:08:55.392Z,64.11
2018-07-11T04:11:26.049Z,64.38
2018-07-11T04:13:56.898Z,63.64
2018-07-11T04:16:27.505Z,63.97
2018-07-11T04:18:57.892Z,63.32
2018-07-11T04:21:28.553Z,62.98
2018-07-11T04:23:59.486Z,62.61
2018-07-11T04:26:30.149Z,62.17
2018-07-11T04:29:01.296Z,62.34
2018-07-11T04:31:32.729Z,62.56
2018-07-11T04:34:03.522Z,61.85
2018-07-11T04:36:34.169Z,62.13
2018-07-11T04:39:05.295Z,61.53
2018-07-11T04:41:35.865Z,61.76
2018-07-11T04:44:06.529Z,60.98
2018-07-11T04:46:37.146Z,62.52
2018-07-11T04:49:08.346Z,62.02
2018-07-11T04:51:39.074Z,60.91
2018-07-11T04:54:09.709Z,59.68
2018-07-11T04:56:40.401Z,58.25
2018-07-11T04:59:11.291Z,57.44
2018-07-11T05:01:42.006Z,56.34
2018-07-11T05:04:12.729Z,56.01
2018-07-11T05:06:43.389Z,54.67
2018-07-11T05:09:14.077Z,53.45
2018-07-11T05:11:44.905Z,53.61
2018-07-11T05:14:15.551Z,53.68
2018-07-11T05:16:46.274Z,52.70
2018-07-11T05:19:17.317Z,51.91
2018-07-11T05:21:47.995Z,52.26
2018-07-11T05:24:18.685Z,51.40
2018-07-11T05:26:49.385Z,50.91
2018-07-11T05:29:20.064Z,50.71
2018-07-11T05:31:50.778Z,50.48
2018-07-11T05:34:21.601Z,50.85
2018-07-11T05:36:52.313Z,49.06
2018-07-11T05:39:22.969Z,48.49
2018-07-11T05:41:53.140Z,49.02
2018-07-11T05:44:23.905Z,47.33
2018-07-11T05:46:59.590Z,46.86
2018-07-11T05:49:30.673Z,48.17
2018-07-11T05:52:01.900Z,47.44
2018-07-11T05:54:33.915Z,46.35
2018-07-11T05:57:04.565Z,45.43
2018-07-11T05:59:35.338Z,45.56
2018-07-11T06:02:06.170Z,43.99
2018-07-11T06:04:36.865Z,43.20
2018-07-11T06:07:07.438Z,43.99
2018-07-11T06:09:38.260Z,43.15
2018-07-11T06:12:08.917Z,42.61
2018-07-11T06:14:39.709Z,42.04
2018-07-11T06:17:10.379Z,42.58
2018-07-11T06:19:41.098Z,41.74
2018-07-11T06:22:11.743Z,41.42
2018-07-11T06:24:42.836Z,40.04
2018-07-11T06:27:13.512Z,40.93
2018-07-11T06:29:44.481Z,41.66
2018-07-11T06:32:15.087Z,41.88
2018-07-11T06:34:45.590Z,41.90
2018-07-11T06:37:16.347Z,40.47
2018-07-11T06:39:47.125Z,40.71
2018-07-11T06:42:17.325Z,37.62
2018-07-11T06:44:48.190Z,38.17
2018-07-11T06:47:18.935Z,39.31
2018-07-11T06:49:49.657Z,38.44
2018-07-11T06:52:20.333Z,38.41
2018-07-11T06:54:51.172Z,37.58
2018-07-11T06:57:21.913Z,38.77
2018-07-11T06:59:52.697Z,39.29
2018-07-11T07:02:23.379Z,39.70
2018-07-11T07:04:54.469Z,39.28
2018-07-11T07:07:24.652Z,36.22
2018-07-11T07:09:55.550Z,37.72
2018-07-11T07:12:26.361Z,39.26
2018-07-11T07:14:57.321Z,38.58
2018-07-11T07:17:27.909Z,38.62
2018-07-11T07:19:58.705Z,37.42
2018-07-11T07:22:29.359Z,36.13
2018-07-11T07:25:00.190Z,36.01
2018-07-11T07:27:32.617Z,36.20
2018-07-11T07:30:02.785Z,34.15
2018-07-11T07:32:33.553Z,36.22
2018-07-11T07:35:04.273Z,34.73
2018-07-11T07:37:35.082Z,34.93
2018-07-11T07:40:05.959Z,35.64
2018-07-11T07:42:36.220Z,35.91
2018-07-11T07:45:07.951Z,35.94
2018-07-11T07:47:44.629Z,37.62
2018-07-11T07:50:16.481Z,36.19
2018-07-11T07:52:47.680Z,34.45
2018-07-11T07:55:18.569Z,35.42
2018-07-11T07:57:49.325Z,35.13
2018-07-11T08:00:20.149Z,36.19
2018-07-11T08:02:50.894Z,33.29
2018-07-11T08:05:21.713Z,33.29
2018-07-11T08:07:52.226Z,33.64
2018-07-11T08:10:23.103Z,33.83
2018-07-11T08:12:53.781Z,34.27
2018-07-11T08:15:24.514Z,35.74
2018-07-11T08:17:55.264Z,34.04
2018-07-11T08:20:26.094Z,33.11
2018-07-11T08:23:23.332Z,32.90
2018-07-11T08:26:10.447Z,33.21
2018-07-11T08:31:01.231Z,32.38
2018-07-11T08:34:48.861Z,31.61
2018-07-11T08:38:34.397Z,33.59
2018-07-11T08:41:23.526Z,35.28
2018-07-11T08:46:14.465Z,34.14
2018-07-11T08:48:59.565Z,32.83
2018-07-11T08:51:45.206Z,33.12
2018-07-11T08:54:26.621Z,33.45
2018-07-11T09:02:42.585Z,32.03
2018-07-11T09:05:30.444Z,33.00
2018-07-11T09:12:27.409Z,33.58
2018-07-11T09:17:20.598Z,32.62
2018-07-11T09:20:00.500Z,31.58
2018-07-11T09:23:23.221Z,32.73
2018-07-11T09:25:54.128Z,32.46
2018-07-11T09:28:24.902Z,34.47
2018-07-11T09:30:55.634Z,32.95
2018-07-11T09:33:26.444Z,30.58
2018-07-11T09:35:56.964Z,31.80
2018-07-11T09:38:27.293Z,31.64
2018-07-11T09:40:57.790Z,31.76
2018-07-11T09:43:28.461Z,31.39
2018-07-11T09:45:59.029Z,28.77
2018-07-11T09:48:29.483Z,31.00
2018-07-11T09:51:00.417Z,29.00
2018-07-11T09:53:31.246Z,30.45
2018-07-11T09:56:02.117Z,31.84
2018-07-11T09:58:33.547Z,31.22
2018-07-11T10:01:09.311Z,31.72
2018-07-11T10:03:40.186Z,29.16
2018-07-11T10:06:11.075Z,30.94
2018-07-11T10:08:41.702Z,31.41
2018-07-11T10:11:12.545Z,29.85
2018-07-11T10:13:43.104Z,30.42
2018-07-11T10:16:14.569Z,30.77
2018-07-11T10:19:00.736Z,29.90
2018-07-11T10:21:32.383Z,29.77
2018-07-11T10:24:03.177Z,30.20
2018-07-11T10:26:33.914Z,27.42
2018-07-11T10:29:04.637Z,25.27
2018-07-11T10:31:35.377Z,27.44
2018-07-11T10:34:06.210Z,29.05
2018-07-11T10:36:36.939Z,29.36
2018-07-11T10:39:08.175Z,26.65
2018-07-11T10:41:38.921Z,26.98
2018-07-11T10:44:09.530Z,27.77
2018-07-11T10:46:40.602Z,30.38
2018-07-11T10:49:11.325Z,29.31
2018-07-11T10:51:42.855Z,27.67
2018-07-11T10:54:13.235Z,26.83
2018-07-11T10:56:43.929Z,26.32
2018-07-11T10:59:15.400Z,27.93
2018-07-11T11:01:46.565Z,28.49
2018-07-11T11:04:21.841Z,29.32
2018-07-11T11:06:52.681Z,30.49
2018-07-11T11:09:23.958Z,28.18
2018-07-11T11:11:54.758Z,26.57
2018-07-11T11:14:25.358Z,28.16
2018-07-11T11:16:56.157Z,28.56
2018-07-11T11:19:27.029Z,26.14
2018-07-11T11:21:57.953Z,27.62
2018-07-11T11:24:28.774Z,27.91
2018-07-11T11:26:59.674Z,26.38
2018-07-11T11:29:30.013Z,24.77
2018-07-11T11:32:01.138Z,26.30
2018-07-11T11:34:31.845Z,27.66
2018-07-11T11:37:02.757Z,25.47
2018-07-11T11:39:33.623Z,25.85
2018-07-11T11:42:04.323Z,27.52
2018-07-11T11:44:34.942Z,27.61
2018-07-11T11:47:05.816Z,27.51
2018-07-11T11:49:36.535Z,26.20
2018-07-11T11:52:07.298Z,25.93
2018-07-11T11:54:37.429Z,26.09
2018-07-11T11:57:07.905Z,23.61
2018-07-11T11:59:38.553Z,25.17
2018-07-11T12:02:11.183Z,24.86
2018-07-11T12:04:42.494Z,25.96
2018-07-11T12:07:13.202Z,24.75
2018-07-11T12:09:43.963Z,26.89
2018-07-11T12:12:14.800Z,25.87
2018-07-11T12:14:45.591Z,26.67
2018-07-11T12:17:16.553Z,28.10
2018-07-11T12:19:47.858Z,26.43
2018-07-11T12:22:24.814Z,27.30
2018-07-11T12:24:55.516Z,26.70
2018-07-11T12:27:26.214Z,27.22
2018-07-11T12:29:56.898Z,27.21
2018-07-11T12:32:27.629Z,27.18
2018-07-11T12:34:58.405Z,27.43
2018-07-11T12:37:29.249Z,25.67
2018-07-11T12:40:00.059Z,24.71
2018-07-11T12:42:30.889Z,25.61
2018-07-11T12:45:01.889Z,26.15
2018-07-11T12:47:38.001Z,24.25
2018-07-11T12:50:08.799Z,25.92
2018-07-11T12:52:43.340Z,26.12
2018-07-11T12:55:14.101Z,23.88
2018-07-11T12:57:44.993Z,24.73
2018-07-11T13:00:15.732Z,24.68
2018-07-11T13:02:46.955Z,24.77
2018-07-11T13:05:17.885Z,24.03
2018-07-11T13:07:48.874Z,24.61
2018-07-11T13:10:19.686Z,25.43
2018-07-11T13:12:50.583Z,25.10
2018-07-11T13:15:21.457Z,25.37
2018-07-11T13:17:52.444Z,24.19
2018-07-11T13:20:22.973Z,22.60
2018-07-11T13:22:53.815Z,22.48
2018-07-11T13:25:24.538Z,23.34
2018-07-11T13:27:55.618Z,22.59
2018-07-11T13:30:26.454Z,24.13
2018-07-11T13:32:57.263Z,23.89
2018-07-11T13:35:28.062Z,24.97
2018-07-11T13:37:58.434Z,26.03
2018-07-11T13:40:29.133Z,25.33
2018-07-11T13:43:00.113Z,24.89
2018-07-11T13:45:30.786Z,23.27
2018-07-11T13:48:02.877Z,24.52
2018-07-11T13:50:35.101Z,25.35
2018-07-11T13:53:05.928Z,25.91
2018-07-11T13:55:36.675Z,23.84
2018-07-11T13:58:07.761Z,24.30
2018-07-11T14:00:38.349Z,22.53
2018-07-11T14:03:09.338Z,23.66
2018-07-11T14:05:40.062Z,24.67
2018-07-11T14:08:10.821Z,22.60
2018-07-11T14:10:42.050Z,23.20
2018-07-11T14:13:12.897Z,23.34
2018-07-11T14:15:43.609Z,26.05
2018-07-11T14:18:14.981Z,25.59
2018-07-11T14:20:45.629Z,26.62
2018-07-11T14:23:21.129Z,24.98
2018-07-11T14:25:51.925Z,25.16
2018-07-11T14:28:22.826Z,25.26
2018-07-11T14:30:53.565Z,25.33
2018-07-11T14:33:26.206Z,24.74
2018-07-11T14:35:56.840Z,23.74
2018-07-11T14:38:28.273Z,23.11
2018-07-11T14:41:00.981Z,23.61
2018-07-11T14:43:31.957Z,23.87
2018-07-11T14:46:02.778Z,25.29
2018-07-11T14:48:33.797Z,24.25
2018-07-11T14:51:04.799Z,23.63
2018-07-11T14:53:35.710Z,24.62
2018-07-11T14:56:06.475Z,26.44
2018-07-11T14:58:37.305Z,25.18
2018-07-11T15:01:07.973Z,28.12
2018-07-11T15:03:39.689Z,28.47
2018-07-11T15:06:10.194Z,26.57
2018-07-11T15:08:41.049Z,27.10
2018-07-11T15:11:11.693Z,26.97
2018-07-11T15:13:42.502Z,25.38
2018-07-11T15:16:13.145Z,23.13
2018-07-11T15:18:43.893Z,27.50
2018-07-11T15:21:15.277Z,24.61
2018-07-11T15:23:46.214Z,24.20
2018-07-11T15:26:17.152Z,24.05
2018-07-11T15:28:47.987Z,24.36
2018-07-11T15:31:18.850Z,23.42
2018-07-11T15:33:50.086Z,25.33
2018-07-11T15:36:20.297Z,24.45
2018-07-11T15:38:51.145Z,25.67
2018-07-11T15:41:21.400Z,26.05
2018-07-11T15:43:52.581Z,28.67
2018-07-11T15:46:23.573Z,28.73
2018-07-11T15:48:54.446Z,30.63
2018-07-11T15:51:25.201Z,31.21
2018-07-11T15:53:56.853Z,30.43
2018-07-11T15:56:27.585Z,29.78
2018-07-11T15:59:07.848Z,29.96
2018-07-11T16:01:46.259Z,30.63
2018-07-11T16:04:26.046Z,29.38
2018-07-11T16:07:04.446Z,28.68
2018-07-11T16:09:50.209Z,28.88
2018-07-11T16:12:20.858Z,27.10
2018-07-11T16:14:51.149Z,28.78
2018-07-11T16:17:22.368Z,30.19
2018-07-11T16:19:53.492Z,29.56
2018-07-11T16:22:24.474Z,30.19
2018-07-11T16:24:55.574Z,30.88
2018-07-11T16:27:26.490Z,31.83
2018-07-11T16:29:57.326Z,29.51
2018-07-11T16:32:27.689Z,29.61
2018-07-11T16:34:58.806Z,29.87
2018-07-11T16:37:29.533Z,30.68
2018-07-11T16:40:00.309Z,30.51
2018-07-11T16:42:31.137Z,30.93
2018-07-11T16:45:02.115Z,31.45
2018-07-11T16:47:32.959Z,31.87
2018-07-11T16:50:03.801Z,31.92
2018-07-11T16:52:34.112Z,34.11
2018-07-11T16:55:04.749Z,33.51
2018-07-11T16:57:42.361Z,35.03
2018-07-11T17:00:13.339Z,34.53
2018-07-11T17:02:46.598Z,35.67
2018-07-11T17:05:22.829Z,36.65
2018-07-11T17:07:57.958Z,36.51
2018-07-11T17:10:31.656Z,36.83
2018-07-11T17:13:12.018Z,37.36
2018-07-11T17:15:49.508Z,37.21
2018-07-11T17:18:32.560Z,38.49
2018-07-11T17:21:10.584Z,38.07
2018-07-11T17:23:48.781Z,38.74
2018-07-11T17:26:19.469Z,39.86
2018-07-11T17:28:50.253Z,40.28
2018-07-11T17:31:21.021Z,40.92
2018-07-11T17:33:51.757Z,41.75
2018-07-11T17:36:23.069Z,41.41
2018-07-11T17:38:54.781Z,41.75
2018-07-11T17:41:25.861Z,41.21
2018-07-11T17:43:56.045Z,42.07
2018-07-11T17:46:26.978Z,42.16
2018-07-11T17:49:16.158Z,42.52
2018-07-11T17:52:01.463Z,43.35
2018-07-11T17:54:57.902Z,42.63
2018-07-11T17:57:38.072Z,42.74
2018-07-11T18:00:09.655Z,44.11
2018-07-11T18:02:52.141Z,43.23
2018-07-11T18:05:36.471Z,43.40
2018-07-11T18:08:10.251Z,44.69
2018-07-11T18:10:51.845Z,45.50
2018-07-11T18:13:33.156Z,46.03
2018-07-11T18:16:45.163Z,45.93
2018-07-11T18:19:33.172Z,46.18
2018-07-11T18:22:14.145Z,47.34
2018-07-11T18:25:07.917Z,47.56
2018-07-11T18:27:55.333Z,48.05
2018-07-11T18:30:42.562Z,48.43
2018-07-11T18:33:31.731Z,49.35
2018-07-11T18:38:21.562Z,49.54
2018-07-11T18:44:24.071Z,50.05
2018-07-11T18:48:09.057Z,50.43
2018-07-11T18:50:56.061Z,50.63
2018-07-11T18:53:44.827Z,50.42
2018-07-11T18:56:37.266Z,50.86
2018-07-11T19:01:56.114Z,51.34
2018-07-11T19:04:45.827Z,52.33
2018-07-11T19:07:59.966Z,52.26
2018-07-11T19:10:50.990Z,52.54
2018-07-11T19:13:32.511Z,52.93
2018-07-11T19:16:17.229Z,53.54
2018-07-11T19:19:10.022Z,53.66
2018-07-11T19:23:54.592Z,54.42
2018-07-11T19:26:47.645Z,53.82
2018-07-11T19:30:43.950Z,54.49
2018-07-11T19:33:58.853Z,54.65
2018-07-11T19:37:17.254Z,54.24
2018-07-11T19:40:11.043Z,53.96
2018-07-11T19:43:00.549Z,54.51
2018-07-11T19:45:48.281Z,54.31
2018-07-11T19:50:42.390Z,55.62
2018-07-11T19:54:26.161Z,53.72
2018-07-11T19:56:58.942Z,54.30
2018-07-11T19:59:29.885Z,53.84
2018-07-11T20:02:00.759Z,54.94
2018-07-11T20:04:31.621Z,58.19
2018-07-11T20:07:02.363Z,58.66
2018-07-11T20:09:33.185Z,58.71
2018-07-11T20:12:03.917Z,58.72
2018-07-11T20:14:34.893Z,58.46
2018-07-11T20:17:05.662Z,60.00
2018-07-11T20:19:36.449Z,59.85
2018-07-11T20:22:07.182Z,61.34
2018-07-11T20:24:37.912Z,61.59
2018-07-11T20:27:08.738Z,60.36
2018-07-11T20:29:39.222Z,58.73
2018-07-11T20:32:10.049Z,58.03
2018-07-11T20:34:40.910Z,58.77
2018-07-11T20:37:11.554Z,58.25
2018-07-11T20:39:42.494Z,57.33
2018-07-11T20:42:13.282Z,58.86
2018-07-11T20:44:44.057Z,58.25
2018-07-11T20:47:14.829Z,57.98
2018-07-11T20:49:46.085Z,57.86
2018-07-11T20:52:16.765Z,57.94
2018-07-11T20:54:47.523Z,58.21
2018-07-11T20:57:18.229Z,58.20
2018-07-11T21:01:05.130Z,57.68
2018-07-11T21:04:18.157Z,57.63
2018-07-11T21:09:15.869Z,58.21
2018-07-11T21:12:19.369Z,58.32
2018-07-11T21:15:08.893Z,59.32
2018-07-11T21:19:09.339Z,58.26
2018-07-11T21:21:41.209Z,57.90
2018-07-11T21:24:12.582Z,58.28
2018-07-11T21:26:43.357Z,57.81
2018-07-11T21:29:14.082Z,57.83
2018-07-11T21:31:44.902Z,58.17
2018-07-11T21:34:15.085Z,58.12
2018-07-11T21:36:45.997Z,59.31
2018-07-11T21:39:16.701Z,59.76
2018-07-11T21:41:47.425Z,59.65
2018-07-11T21:44:17.549Z,60.14
2018-07-11T21:46:48.209Z,59.78
2018-07-11T21:49:22.986Z,58.99
2018-07-11T21:51:54.161Z,58.96
2018-07-11T21:54:24.830Z,58.92
2018-07-11T21:56:55.482Z,58.73
2018-07-11T21:59:26.233Z,59.19
2018-07-11T22:01:56.245Z,59.19
2018-07-11T22:04:27.313Z,58.44
2018-07-11T22:06:57.993Z,59.33
2018-07-11T22:09:28.769Z,58.94
2018-07-11T22:11:59.025Z,59.20
2018-07-11T22:14:29.869Z,58.77
2018-07-11T22:17:09.989Z,58.69
2018-07-11T22:19:38.979Z,58.34
2018-07-11T22:22:07.321Z,59.46
2018-07-11T22:24:35.581Z,59.66
2018-07-11T22:27:03.918Z,59.06
2018-07-11T22:29:32.376Z,58.55
2018-07-11T22:32:00.905Z,58.92
2018-07-11T22:34:29.294Z,59.01
2018-07-11T22:36:57.473Z,59.14
2018-07-11T22:39:25.926Z,58.94
2018-07-11T22:41:54.365Z,59.47
2018-07-11T22:44:22.537Z,59.34
2018-07-11T22:46:50.704Z,58.68
2018-07-11T22:49:19.597Z,59.46
2018-07-11T22:51:48.285Z,59.27
2018-07-11T22:54:16.637Z,59.30
2018-07-11T22:56:45.049Z,59.46
2018-07-11T22:59:13.314Z,59.37
2018-07-11T23:01:41.491Z,59.66
2018-07-11T23:04:10.040Z,59.87
2018-07-11T23:06:38.205Z,60.30
2018-07-11T23:09:06.439Z,60.57
2018-07-11T23:11:35.174Z,60.42
2018-07-11T23:14:03.377Z,60.30
2018-07-11T23:16:31.732Z,59.94
2018-07-11T23:18:59.941Z,60.19
2018-07-11T23:21:28.420Z,60.37
2018-07-11T23:23:58.295Z,60.07
2018-07-11T23:26:26.529Z,60.16
2018-07-11T23:28:54.789Z,60.61
2018-07-11T23:31:23.235Z,60.56
2018-07-11T23:33:51.846Z,60.28
2018-07-11T23:36:19.979Z,61.72
2018-07-11T23:38:48.226Z,61.50
2018-07-11T23:41:16.635Z,60.92
2018-07-11T23:43:44.839Z,61.23
2018-07-11T23:46:13.006Z,61.95
2018-07-11T23:48:41.566Z,62.38
2018-07-11T23:51:09.767Z,62.14
2018-07-11T23:53:38.218Z,62.14
2018-07-11T23:56:06.640Z,62.55
2018-07-11T23:58:34.901Z,62.33
